Time;durP1;ratioP1;P1;durP2;ratioP2;P2;SDS_P1;SDS_P2;PMS_P1;PMS_P2;Temp;Humidity;BMP_temperature;BMP_pressure;BME280_temperature;BME280_humidity;BME280_pressure;Samples;Min_cycle;Max_cycle;Signal;HPM_P1;HPM_P2
2022/02/23 00:02:11;;;;;;;;;;;6.90;99.90;;;;;;4882219;29;19942;-84
2022/02/23 00:05:12;;;;;;;;;;;6.90;99.90;;;;;;4864852;29;20745;-86
2022/02/23 00:07:48;;;;;;;;;;;6.70;99.90;;;;;;4887893;29;19916;-85
2022/02/23 00:10:25;;;;;;;;;;;6.90;99.90;;;;;;4894824;29;19928;-86
2022/02/23 00:13:05;;;;;;;;;;;8.20;99.90;;;;;;4864839;29;19922;-82
2022/02/23 00:15:36;;;;;;;;;;;7.00;99.90;;;;;;4880256;29;19934;-88
2022/02/23 00:18:20;;;;;;;;;;;6.60;99.90;;;;;;4853391;29;19931;-88
2022/02/23 00:21:11;;;;;;;;;;;6.70;99.90;;;;;;4896605;29;19938;-86
2022/02/23 00:23:42;;;;;;;;;;;7.30;99.90;;;;;;4864695;29;19932;-85
2022/02/23 00:26:13;;;;;;;;;;;6.50;99.90;;;;;;4879533;29;19934;-85
2022/02/23 00:28:50;;;;;;;;;;;6.50;99.90;;;;;;4862606;29;19935;-86
2022/02/23 00:31:24;;;;;;;;;;;6.70;99.90;;;;;;4878958;29;19928;-85
2022/02/23 00:33:55;;;;;;;;;;;6.60;99.90;;;;;;4862654;29;19932;-86
2022/02/23 00:36:24;;;;;;;;;;;6.50;99.90;;;;;;4861525;29;19955;-85
2022/02/23 00:38:59;;;;;;;;;;;6.50;99.90;;;;;;4861601;29;19928;-84
2022/02/23 00:41:32;;;;;;;;;;;6.60;99.90;;;;;;4861408;29;19932;-86
2022/02/23 00:44:15;;;;;;;;;;;6.30;99.90;;;;;;4844182;29;19932;-83
2022/02/23 00:46:53;;;;;;;;;;;6.30;99.90;;;;;;4843390;29;20111;-85
2022/02/23 00:49:29;;;;;;;;;;;6.50;99.90;;;;;;4858513;29;20109;-85
2022/02/23 00:52:08;;;;;;;;;;;6.30;99.90;;;;;;4877215;29;19928;-84
2022/02/23 00:54:39;;;;;;;;;;;6.50;99.90;;;;;;4862463;29;19939;-85
2022/02/23 00:57:33;;;;;;;;;;;6.30;99.90;;;;;;4883292;29;19932;-86
2022/02/23 01:00:04;;;;;;;;;;;7.00;99.90;;;;;;4861264;29;19943;-88
2022/02/23 01:02:43;;;;;;;;;;;6.50;99.90;;;;;;4870189;29;19913;-85
2022/02/23 01:05:12;;;;;;;;;;;5.90;99.90;;;;;;4874251;29;19934;-88
2022/02/23 01:07:42;;;;;;;;;;;7.60;99.90;;;;;;4874772;29;20527;-84
2022/02/23 01:10:23;;;;;;;;;;;6.30;99.90;;;;;;4862123;29;19928;-88
2022/02/23 01:12:52;;;;;;;;;;;6.20;99.90;;;;;;4886414;29;19918;-89
2022/02/23 01:15:27;;;;;;;;;;;6.20;99.90;;;;;;4865083;29;19928;-86
2022/02/23 01:18:04;;;;;;;;;;;6.20;99.90;;;;;;4869027;29;19912;-85
2022/02/23 01:20:44;;;;;;;;;;;6.20;99.90;;;;;;4878506;29;19924;-87
2022/02/23 01:23:18;;;;;;;;;;;6.40;99.90;;;;;;4848997;29;19916;-85
2022/02/23 01:26:01;;;;;;;;;;;6.10;99.90;;;;;;4877909;29;19928;-88
2022/02/23 01:28:41;;;;;;;;;;;6.10;99.90;;;;;;4897515;29;19938;-86
2022/02/23 01:31:15;;;;;;;;;;;6.00;99.90;;;;;;4900966;29;19939;-86
2022/02/23 01:33:53;;;;;;;;;;;6.00;99.90;;;;;;4895548;29;19936;-87
2022/02/23 01:36:30;;;;;;;;;;;4.70;99.90;;;;;;4874772;29;19927;-85
2022/02/23 01:39:06;;;;;;;;;;;4.80;99.90;;;;;;4887224;29;19934;-83
2022/02/23 01:41:43;;;;;;;;;;;6.20;99.90;;;;;;4864036;29;19928;-85
2022/02/23 01:44:18;;;;;;;;;;;5.90;99.90;;;;;;4878028;29;19932;-84
2022/02/23 01:46:58;;;;;;;;;;;6.00;99.90;;;;;;4878392;29;19935;-86
2022/02/23 01:49:42;;;;;;;;;;;5.10;99.90;;;;;;4865497;29;20337;-84
2022/02/23 01:52:13;;;;;;;;;;;5.80;99.90;;;;;;4878483;29;19924;-86
2022/02/23 01:54:54;;;;;;;;;;;5.80;99.90;;;;;;4894674;29;19932;-85
2022/02/23 01:57:22;;;;;;;;;;;5.80;99.90;;;;;;4877833;29;20286;-85
2022/02/23 02:00:28;;;;;;;;;;;5.80;99.90;;;;;;4893951;29;19928;-85
2022/02/23 02:03:09;;;;;;;;;;;5.80;99.90;;;;;;4863899;29;20412;-88
2022/02/23 02:05:43;;;;;;;;;;;5.80;99.90;;;;;;4862512;29;19932;-85
2022/02/23 02:08:18;;;;;;;;;;;5.70;99.90;;;;;;4876770;29;19934;-86
2022/02/23 02:10:58;;;;;;;;;;;5.40;99.90;;;;;;4878181;29;19912;-88
2022/02/23 02:13:28;;;;;;;;;;;5.90;99.90;;;;;;4863012;29;19928;-87
2022/02/23 02:16:01;;;;;;;;;;;5.60;99.90;;;;;;4892715;29;19938;-85
2022/02/23 02:18:36;;;;;;;;;;;5.60;99.90;;;;;;4863014;29;19927;-87
2022/02/23 02:21:06;;;;;;;;;;;5.60;99.90;;;;;;4879373;29;19928;-86
2022/02/23 02:23:44;;;;;;;;;;;5.20;99.90;;;;;;4878811;29;19928;-87
2022/02/23 02:26:30;;;;;;;;;;;4.40;99.90;;;;;;4895755;29;19928;-87
2022/02/23 02:29:22;;;;;;;;;;;5.70;99.90;;;;;;4895823;29;19932;-86
2022/02/23 02:32:05;;;;;;;;;;;;;;;;;;;;;
2022/02/23 02:35:15;;;;;;;;;;;5.60;99.90;;;;;;4884241;29;19927;-87
2022/02/23 02:38:11;;;;;;;;;;;5.60;99.90;;;;;;4904677;29;19927;-88
2022/02/23 02:40:45;;;;;;;;;;;5.50;99.90;;;;;;4915838;29;19934;-86
2022/02/23 02:43:25;;;;;;;;;;;5.60;99.90;;;;;;4871399;29;19936;-85
2022/02/23 02:45:57;;;;;;;;;;;4.70;99.90;;;;;;4886152;29;19928;-86
2022/02/23 02:48:30;;;;;;;;;;;6.10;99.90;;;;;;4868748;29;19927;-85
2022/02/23 02:51:02;;;;;;;;;;;5.10;99.90;;;;;;4565447;29;9999613;-85
2022/02/23 02:53:58;;;;;;;;;;;5.50;99.90;;;;;;4886259;29;19916;-84
2022/02/23 02:56:30;;;;;;;;;;;4.70;99.90;;;;;;4880942;29;19922;-85
2022/02/23 02:59:07;;;;;;;;;;;4.90;99.90;;;;;;4865563;29;19934;-85
2022/02/23 03:01:56;;;;;;;;;;;5.40;99.90;;;;;;4886283;29;19939;-84
2022/02/23 03:04:45;;;;;;;;;;;5.30;99.90;;;;;;4879755;29;19932;-84
2022/02/23 03:07:26;;;;;;;;;;;5.40;99.90;;;;;;4901642;29;19928;-84
2022/02/23 03:09:56;;;;;;;;;;;5.50;99.90;;;;;;4884587;29;19928;-83
2022/02/23 03:12:30;;;;;;;;;;;5.50;99.90;;;;;;4884358;29;19923;-85
2022/02/23 03:15:00;;;;;;;;;;;5.30;99.90;;;;;;4869103;29;19932;-83
2022/02/23 03:17:38;;;;;;;;;;;5.20;99.90;;;;;;4884920;29;19931;-84
2022/02/23 03:20:34;;;;;;;;;;;5.10;99.90;;;;;;4888236;29;19927;-83
2022/02/23 03:23:05;;;;;;;;;;;5.10;99.90;;;;;;4869005;29;19928;-83
2022/02/23 03:25:39;;;;;;;;;;;5.10;99.90;;;;;;4884382;29;19932;-84
2022/02/23 03:28:14;;;;;;;;;;;6.10;99.90;;;;;;4884015;29;19928;-84
2022/02/23 03:30:51;;;;;;;;;;;5.50;99.90;;;;;;4901943;29;19942;-84
2022/02/23 03:33:30;;;;;;;;;;;5.10;99.90;;;;;;4901691;29;19932;-85
2022/02/23 03:36:07;;;;;;;;;;;5.10;99.90;;;;;;4903107;29;19915;-85
2022/02/23 03:38:39;;;;;;;;;;;5.20;99.90;;;;;;4889274;29;19954;-87
2022/02/23 03:41:15;;;;;;;;;;;5.00;99.90;;;;;;4901438;29;19927;-85
2022/02/23 03:43:52;;;;;;;;;;;4.50;99.90;;;;;;4862645;29;19936;-84
2022/02/23 03:46:41;;;;;;;;;;;4.90;99.90;;;;;;4863872;29;19934;-85
2022/02/23 03:49:19;;;;;;;;;;;4.70;99.90;;;;;;4878715;29;19933;-86
2022/02/23 03:52:02;;;;;;;;;;;6.50;99.90;;;;;;4892607;29;19934;-86
2022/02/23 03:54:30;;;;;;;;;;;5.60;99.90;;;;;;4881165;29;19938;-87
2022/02/23 03:57:07;;;;;;;;;;;5.30;99.90;;;;;;4866289;29;19928;-87
2022/02/23 03:59:48;;;;;;;;;;;4.90;99.90;;;;;;4880359;29;19927;-84
2022/02/23 04:02:29;;;;;;;;;;;4.90;99.90;;;;;;4881502;29;19928;-86
2022/02/23 04:05:11;;;;;;;;;;;5.00;99.90;;;;;;4881232;29;19934;-83
2022/02/23 04:08:04;;;;;;;;;;;;;;;;;;;;;
2022/02/23 04:10:37;;;;;;;;;;;5.00;99.90;;;;;;4881358;29;19927;-85
2022/02/23 04:13:12;;;;;;;;;;;5.20;99.90;;;;;;4881550;29;19932;-85
2022/02/23 04:15:57;;;;;;;;;;;4.90;99.90;;;;;;4881825;29;20411;-84
2022/02/23 04:18:39;;;;;;;;;;;4.90;99.90;;;;;;4867537;29;19928;-83
2022/02/23 04:21:25;;;;;;;;;;;5.10;99.90;;;;;;4884268;29;19924;-86
2022/02/23 04:24:25;;;;;;;;;;;5.00;99.90;;;;;;4883633;29;19938;-83
2022/02/23 04:30:22;;;;;;;;;;;4.80;99.90;;;;;;4897801;29;19942;-84
2022/02/23 04:32:59;;;;;;;;;;;5.90;99.90;;;;;;4884661;29;19928;-84
2022/02/23 04:35:48;;;;;;;;;;;4.90;99.90;;;;;;4901419;29;19931;-84
2022/02/23 04:38:19;;;;;;;;;;;4.90;99.90;;;;;;4899740;29;19936;-84
2022/02/23 04:41:00;;;;;;;;;;;4.70;99.90;;;;;;4880728;29;19927;-83
2022/02/23 04:43:40;;;;;;;;;;;5.10;99.90;;;;;;4882321;29;19928;-86
2022/02/23 04:46:23;;;;;;;;;;;4.00;99.90;;;;;;4864839;29;19927;-87
2022/02/23 04:49:02;;;;;;;;;;;5.90;99.90;;;;;;4880119;29;19928;-87
2022/02/23 04:51:50;;;;;;;;;;;4.50;99.90;;;;;;4860147;29;19932;-84
2022/02/23 04:54:27;;;;;;;;;;;5.00;99.90;;;;;;4538535;29;10000238;-85
2022/02/23 04:57:09;;;;;;;;;;;4.60;99.90;;;;;;4901310;29;19932;-84
2022/02/23 04:59:46;;;;;;;;;;;4.50;99.90;;;;;;4879868;29;19931;-85
2022/02/23 05:02:40;;;;;;;;;;;4.70;99.90;;;;;;4883501;29;19964;-85
2022/02/23 05:05:38;;;;;;;;;;;4.50;99.90;;;;;;4895966;29;19934;-83
2022/02/23 05:08:15;;;;;;;;;;;5.00;99.90;;;;;;4876706;29;19932;-85
2022/02/23 05:11:22;;;;;;;;;;;4.70;99.90;;;;;;4875753;29;19928;-85
2022/02/23 05:14:06;;;;;;;;;;;4.30;99.90;;;;;;4845915;29;19934;-85
2022/02/23 05:16:39;;;;;;;;;;;4.40;99.90;;;;;;4882834;29;19934;-84
2022/02/23 05:19:17;;;;;;;;;;;4.30;99.90;;;;;;4878917;29;19930;-83
2022/02/23 05:21:46;;;;;;;;;;;4.90;99.90;;;;;;4860780;29;19928;-84
2022/02/23 05:24:23;;;;;;;;;;;5.60;99.90;;;;;;4877798;29;19927;-88
2022/02/23 05:26:59;;;;;;;;;;;4.00;99.90;;;;;;4889194;29;19928;-83
2022/02/23 05:30:03;;;;;;;;;;;4.00;99.90;;;;;;4881184;29;20305;-86
2022/02/23 05:32:38;;;;;;;;;;;4.00;99.90;;;;;;4880493;29;19927;-84
2022/02/23 05:35:12;;;;;;;;;;;3.30;99.90;;;;;;4902055;29;19934;-84
2022/02/23 05:37:45;;;;;;;;;;;4.00;99.90;;;;;;4881203;29;19932;-82
2022/02/23 05:40:27;;;;;;;;;;;4.10;99.90;;;;;;4878816;29;20413;-84
2022/02/23 05:43:03;;;;;;;;;;;3.70;99.90;;;;;;4880176;29;19927;-83
2022/02/23 05:45:31;;;;;;;;;;;3.80;99.90;;;;;;4894873;29;19934;-84
2022/02/23 05:48:02;;;;;;;;;;;3.90;99.90;;;;;;4879018;29;19938;-83
2022/02/23 05:50:41;;;;;;;;;;;3.80;99.90;;;;;;4864503;29;20469;-83
2022/02/23 05:53:18;;;;;;;;;;;3.80;99.90;;;;;;4878544;29;20518;-84
2022/02/23 05:55:55;;;;;;;;;;;3.70;99.90;;;;;;4864508;29;19932;-84
2022/02/23 05:58:26;;;;;;;;;;;3.80;99.90;;;;;;4861039;29;19920;-85
2022/02/23 06:00:54;;;;;;;;;;;3.80;99.90;;;;;;4886055;29;19938;-83
2022/02/23 06:03:26;;;;;;;;;;;3.60;99.90;;;;;;4879185;29;19934;-84
2022/02/23 06:06:00;;;;;;;;;;;3.80;99.90;;;;;;4878621;29;19931;-83
2022/02/23 06:08:36;;;;;;;;;;;3.60;99.90;;;;;;4892144;29;19931;-83
2022/02/23 06:11:10;;;;;;;;;;;3.50;99.90;;;;;;4895827;29;19915;-83
2022/02/23 06:14:11;;;;;;;;;;;1.70;99.90;;;;;;4901040;29;19927;-83
2022/02/23 06:16:49;;;;;;;;;;;3.80;99.90;;;;;;4870052;29;19934;-84
2022/02/23 06:19:25;;;;;;;;;;;3.90;99.90;;;;;;4879682;29;19928;-84
2022/02/23 06:22:04;;;;;;;;;;;3.90;99.90;;;;;;4873637;29;19942;-84
2022/02/23 06:24:33;;;;;;;;;;;4.20;99.90;;;;;;4860305;29;19928;-84
2022/02/23 06:27:19;;;;;;;;;;;4.10;99.90;;;;;;4860211;29;19934;-84
2022/02/23 06:29:49;;;;;;;;;;;3.80;99.90;;;;;;4861993;29;19932;-85
2022/02/23 06:32:19;;;;;;;;;;;4.10;99.90;;;;;;4885665;29;19932;-84
2022/02/23 06:34:47;;;;;;;;;;;3.40;99.90;;;;;;4883694;29;19938;-85
2022/02/23 06:37:23;;;;;;;;;;;4.20;99.90;;;;;;4876067;29;20328;-84
2022/02/23 06:39:58;;;;;;;;;;;4.40;99.90;;;;;;4876502;29;19916;-86
2022/02/23 06:42:35;;;;;;;;;;;6.00;99.90;;;;;;4894363;29;19939;-83
2022/02/23 06:45:16;;;;;;;;;;;3.10;99.90;;;;;;4856562;29;19928;-85
2022/02/23 06:47:50;;;;;;;;;;;4.60;99.90;;;;;;4864794;29;19932;-87
2022/02/23 06:50:18;;;;;;;;;;;4.30;99.90;;;;;;4878240;29;19928;-87
2022/02/23 06:52:59;;;;;;;;;;;4.30;99.90;;;;;;4879158;29;19928;-86
2022/02/23 06:55:44;;;;;;;;;;;4.30;99.90;;;;;;4858631;29;19929;-85
2022/02/23 06:58:22;;;;;;;;;;;4.80;99.90;;;;;;4879105;29;20036;-88
2022/02/23 07:01:09;;;;;;;;;;;4.40;99.90;;;;;;4884840;29;20007;-85
2022/02/23 07:03:54;;;;;;;;;;;4.30;99.90;;;;;;4892714;29;19932;-87
2022/02/23 07:06:22;;;;;;;;;;;4.50;99.90;;;;;;4894254;29;19932;-86
2022/02/23 07:12:19;;;;;;;;;;;4.50;99.90;;;;;;4892061;29;19930;-85
2022/02/23 07:15:06;;;;;;;;;;;4.60;99.90;;;;;;4885636;29;19928;-85
2022/02/23 07:17:40;;;;;;;;;;;4.50;99.90;;;;;;4894323;29;19935;-85
2022/02/23 07:20:14;;;;;;;;;;;4.50;99.90;;;;;;4880513;29;19938;-87
2022/02/23 07:22:46;;;;;;;;;;;4.50;99.90;;;;;;4867698;29;19934;-86
2022/02/23 07:25:18;;;;;;;;;;;4.70;99.90;;;;;;4902726;29;19938;-83
2022/02/23 07:27:51;;;;;;;;;;;3.80;99.90;;;;;;4885687;29;19927;-84
2022/02/23 07:30:29;;;;;;;;;;;4.10;99.90;;;;;;4902758;29;19928;-85
2022/02/23 07:32:59;;;;;;;;;;;4.60;99.90;;;;;;4866184;29;19932;-83
2022/02/23 07:35:31;;;;;;;;;;;4.60;99.90;;;;;;4872042;29;19928;-84
2022/02/23 07:42:18;;;;;;;;;;;5.20;99.90;;;;;;4892575;29;19932;-86
2022/02/23 07:45:25;;;;;;;;;;;4.70;99.90;;;;;;4860201;29;20042;-87
2022/02/23 07:48:33;;;;;;;;;;;4.90;99.90;;;;;;4840082;29;19935;-84
2022/02/23 07:51:13;;;;;;;;;;;5.20;99.90;;;;;;4850860;29;19937;-85
2022/02/23 07:53:48;;;;;;;;;;;5.70;99.90;;;;;;4838126;29;19959;-84
2022/02/23 07:56:32;;;;;;;;;;;5.20;99.90;;;;;;4821985;29;20244;-85
2022/02/23 07:59:04;;;;;;;;;;;5.40;99.90;;;;;;4847425;29;19934;-84
2022/02/23 08:01:38;;;;;;;;;;;5.30;99.90;;;;;;4852683;29;19957;-84
2022/02/23 08:04:15;;;;;;;;;;;5.80;99.90;;;;;;4851090;29;19935;-84
2022/02/23 08:06:46;;;;;;;;;;;5.50;99.90;;;;;;4851909;29;19932;-84
2022/02/23 08:09:15;;;;;;;;;;;5.50;99.90;;;;;;4877132;29;20590;-84
2022/02/23 08:11:55;;;;;;;;;;;5.50;99.90;;;;;;4872452;29;19938;-85
2022/02/23 08:14:24;;;;;;;;;;;5.20;99.90;;;;;;4861432;29;19932;-84
2022/02/23 08:19:45;;;;;;;;;;;5.80;99.90;;;;;;4890289;29;19939;-85
2022/02/23 08:22:19;;;;;;;;;;;5.90;99.90;;;;;;4892222;29;19936;-85
2022/02/23 08:24:52;;;;;;;;;;;5.60;99.90;;;;;;4856268;29;19939;-84
2022/02/23 08:27:22;;;;;;;;;;;5.80;99.90;;;;;;4872955;29;19928;-84
2022/02/23 08:30:12;;;;;;;;;;;5.80;99.90;;;;;;4890844;29;19938;-84
2022/02/23 08:33:07;;;;;;;;;;;7.50;99.90;;;;;;4874841;29;19934;-84
2022/02/23 08:35:47;;;;;;;;;;;6.30;99.90;;;;;;4874333;29;19931;-84
2022/02/23 08:38:18;;;;;;;;;;;6.00;99.90;;;;;;4859037;29;19936;-84
2022/02/23 08:40:49;;;;;;;;;;;6.50;99.90;;;;;;4891767;29;19928;-83
2022/02/23 08:43:24;;;;;;;;;;;7.60;99.90;;;;;;4865516;29;19928;-84
2022/02/23 08:45:53;;;;;;;;;;;6.60;99.90;;;;;;4892027;29;19935;-83
2022/02/23 08:48:25;;;;;;;;;;;6.50;99.90;;;;;;4889543;29;19944;-83
2022/02/23 08:51:14;;;;;;;;;;;5.80;99.90;;;;;;4890473;29;19928;-83
2022/02/23 08:53:45;;;;;;;;;;;6.70;99.90;;;;;;4879384;29;19932;-84
2022/02/23 08:56:15;;;;;;;;;;;6.60;99.90;;;;;;4874894;29;19928;-84
2022/02/23 08:58:44;;;;;;;;;;;6.80;99.90;;;;;;4879280;29;19927;-83
2022/02/23 09:01:12;;;;;;;;;;;6.80;99.90;;;;;;4882024;29;19942;-85
2022/02/23 09:03:43;;;;;;;;;;;6.80;99.90;;;;;;4874027;29;19928;-87
2022/02/23 09:06:14;;;;;;;;;;;7.70;99.90;;;;;;4865550;29;19938;-85
2022/02/23 09:09:02;;;;;;;;;;;7.20;99.90;;;;;;4875914;29;19942;-84
2022/02/23 09:11:33;;;;;;;;;;;7.10;99.90;;;;;;4866455;29;19951;-83
2022/02/23 09:14:04;;;;;;;;;;;7.30;99.90;;;;;;4895334;29;19931;-84
2022/02/23 09:17:11;;;;;;;;;;;7.40;99.90;;;;;;4830740;29;20346;-86
2022/02/23 09:19:55;;;;;;;;;;;7.20;99.90;;;;;;4818223;29;19993;-84
2022/02/23 09:22:33;;;;;;;;;;;7.50;99.90;;;;;;4816336;29;19940;-85
2022/02/23 09:25:08;;;;;;;;;;;7.30;99.90;;;;;;4814555;29;19966;-83
2022/02/23 09:30:40;;;;;;;;;;;8.20;99.90;;;;;;4824456;29;19928;-84
2022/02/23 09:33:14;;;;;;;;;;;7.50;99.90;;;;;;4821264;29;19929;-83
2022/02/23 09:35:50;;;;;;;;;;;7.60;99.90;;;;;;4819432;29;19929;-82
2022/02/23 09:38:23;;;;;;;;;;;7.50;99.90;;;;;;4834468;29;19952;-82
2022/02/23 09:41:07;;;;;;;;;;;7.60;99.90;;;;;;4852236;29;19954;-82
2022/02/23 09:43:46;;;;;;;;;;;7.60;99.90;;;;;;4883711;29;19931;-82
2022/02/23 09:46:21;;;;;;;;;;;7.90;99.90;;;;;;4893827;29;19928;-82
2022/02/23 09:48:56;;;;;;;;;;;7.80;99.90;;;;;;4892032;29;19931;-83
2022/02/23 09:51:51;;;;;;;;;;;8.10;99.90;;;;;;4871089;29;19936;-82
2022/02/23 10:02:39;;;;;;;;;;;8.50;99.90;;;;;;4744120;30;19937;-82
2022/02/23 10:05:24;;;;;;;;;;;7.20;99.90;;;;;;4761538;30;19930;-83
2022/02/23 10:08:31;;;;;;;;;;;8.00;99.90;;;;;;4806039;29;19933;-82
2022/02/23 10:11:04;;;;;;;;;;;8.00;99.90;;;;;;4824030;29;19965;-84
2022/02/23 10:14:09;;;;;;;;;;;8.10;99.90;;;;;;4820285;29;19939;-82
2022/02/23 10:16:50;;;;;;;;;;;8.40;99.90;;;;;;4812429;29;19937;-84
2022/02/23 10:19:56;;;;;;;;;;;8.20;99.90;;;;;;4804934;29;19936;-85
2022/02/23 10:22:53;;;;;;;;;;;;;;;;;;;;;
2022/02/23 10:25:28;;;;;;;;;;;8.20;99.90;;;;;;4837303;29;19943;-85
2022/02/23 10:28:32;;;;;;;;;;;8.00;99.90;;;;;;4843797;29;19935;-85
2022/02/23 10:31:57;;;;;;;;;;;9.60;99.90;;;;;;4790315;29;19939;-85
2022/02/23 10:34:28;;;;;;;;;;;8.40;99.90;;;;;;4870934;29;19938;-85
2022/02/23 10:37:12;;;;;;;;;;;8.30;99.90;;;;;;4859418;29;19928;-85
2022/02/23 10:40:04;;;;;;;;;;;8.30;99.90;;;;;;4869219;29;19942;-84
2022/02/23 10:43:01;;;;;;;;;;;8.80;99.90;;;;;;4844619;29;19932;-84
2022/02/23 10:49:03;;;;;;;;;;;8.60;99.90;;;;;;4850792;29;19928;-83
2022/02/23 10:51:48;;;;;;;;;;;8.70;99.90;;;;;;4866816;29;20436;-84
2022/02/23 10:55:11;;;;;;;;;;;8.70;99.90;;;;;;4841195;29;19929;-84
2022/02/23 10:58:00;;;;;;;;;;;9.10;99.90;;;;;;4837410;29;19929;-85
2022/02/23 11:00:54;;;;;;;;;;;9.00;99.90;;;;;;4858062;29;19936;-85
2022/02/23 11:03:39;;;;;;;;;;;9.10;99.90;;;;;;4867636;29;19939;-85
2022/02/23 11:06:14;;;;;;;;;;;9.30;99.90;;;;;;4872013;29;20039;-83
2022/02/23 11:08:56;;;;;;;;;;;9.40;99.90;;;;;;4867992;29;19943;-86
2022/02/23 11:11:50;;;;;;;;;;;9.40;99.90;;;;;;4856987;29;19932;-84
2022/02/23 11:14:28;;;;;;;;;;;9.50;99.90;;;;;;4844065;29;19935;-85
2022/02/23 11:17:37;;;;;;;;;;;;;;;;;;;;;
2022/02/23 11:20:30;;;;;;;;;;;8.90;99.90;;;;;;4876854;29;20271;-83
2022/02/23 11:23:24;;;;;;;;;;;10.30;99.90;;;;;;4880871;29;19927;-84
2022/02/23 11:25:54;;;;;;;;;;;10.20;99.90;;;;;;4875043;29;20599;-83
2022/02/23 11:28:49;;;;;;;;;;;9.90;99.90;;;;;;4877381;29;19936;-84
2022/02/23 11:32:03;;;;;;;;;;;10.20;99.90;;;;;;4872676;29;19916;-84
2022/02/23 11:35:03;;;;;;;;;;;10.00;99.90;;;;;;4873383;29;19936;-84
2022/02/23 11:37:54;;;;;;;;;;;8.90;99.90;;;;;;4881290;29;20413;-82
2022/02/23 11:40:24;;;;;;;;;;;10.20;99.90;;;;;;4891828;29;19931;-83
2022/02/23 11:43:18;;;;;;;;;;;10.20;99.90;;;;;;4889422;29;19943;-83
2022/02/23 11:46:12;;;;;;;;;;;10.00;99.90;;;;;;4872666;29;19935;-83
2022/02/23 11:48:45;;;;;;;;;;;11.40;99.90;;;;;;4885296;29;19939;-84
2022/02/23 11:51:31;;;;;;;;;;;10.20;99.90;;;;;;4846645;29;19938;-82
2022/02/23 11:54:18;;;;;;;;;;;10.80;99.90;;;;;;4879621;29;19928;-83
2022/02/23 11:56:55;;;;;;;;;;;10.50;99.90;;;;;;4859914;29;19936;-83
2022/02/23 11:59:48;;;;;;;;;;;9.70;99.90;;;;;;4883213;29;19928;-83
2022/02/23 12:02:38;;;;;;;;;;;;;;;;;;;;;
2022/02/23 12:05:41;;;;;;;;;;;9.00;99.90;;;;;;4859042;29;19938;-83
2022/02/23 12:08:30;;;;;;;;;;;10.10;99.90;;;;;;4881972;29;19928;-83
2022/02/23 12:11:10;;;;;;;;;;;10.70;99.90;;;;;;4861929;29;20294;-83
2022/02/23 12:13:48;;;;;;;;;;;10.70;99.90;;;;;;4876218;29;19928;-83
2022/02/23 12:16:39;;;;;;;;;;;10.80;99.90;;;;;;4893968;29;19931;-83
2022/02/23 12:19:12;;;;;;;;;;;10.70;99.90;;;;;;4859822;29;19932;-83
2022/02/23 12:21:54;;;;;;;;;;;11.80;99.90;;;;;;4870775;29;19932;-85
2022/02/23 12:24:29;;;;;;;;;;;10.80;99.90;;;;;;4877302;29;19928;-85
2022/02/23 12:27:00;;;;;;;;;;;10.20;99.90;;;;;;4857427;29;19935;-85
2022/02/23 12:29:40;;;;;;;;;;;10.80;99.90;;;;;;4877751;29;19935;-85
2022/02/23 12:32:16;;;;;;;;;;;10.50;99.90;;;;;;4896107;29;19942;-84
2022/02/23 12:34:48;;;;;;;;;;;11.20;99.90;;;;;;4886565;29;19934;-84
2022/02/23 12:37:33;;;;;;;;;;;10.90;99.90;;;;;;4879053;29;19936;-83
2022/02/23 12:40:15;;;;;;;;;;;10.80;99.90;;;;;;4878921;29;20041;-84
2022/02/23 12:43:16;;;;;;;;;;;10.80;99.90;;;;;;4877921;29;19938;-84
2022/02/23 12:45:54;;;;;;;;;;;10.90;99.90;;;;;;4894686;29;19932;-84
2022/02/23 12:48:46;;;;;;;;;;;11.20;99.90;;;;;;4873626;29;19936;-84
2022/02/23 12:51:22;;;;;;;;;;;10.90;99.90;;;;;;4865918;29;19928;-83
2022/02/23 12:54:07;;;;;;;;;;;11.20;99.90;;;;;;4881526;29;19931;-85
2022/02/23 12:56:49;;;;;;;;;;;11.00;99.90;;;;;;4881597;29;19928;-84
2022/02/23 12:59:19;;;;;;;;;;;11.30;99.90;;;;;;4551580;29;10000196;-85
2022/02/23 13:02:09;;;;;;;;;;;10.80;99.90;;;;;;4877255;29;19935;-84
2022/02/23 13:05:06;;;;;;;;;;;11.30;99.90;;;;;;4875478;29;19932;-85
2022/02/23 13:07:47;;;;;;;;;;;11.80;99.90;;;;;;4900147;29;19928;-87
2022/02/23 13:10:48;;;;;;;;;;;11.60;99.90;;;;;;4900781;29;19915;-88
2022/02/23 13:13:59;;;;;;;;;;;11.80;99.90;;;;;;4880318;29;19927;-86
2022/02/23 13:16:36;;;;;;;;;;;11.90;99.90;;;;;;4872899;29;19928;-84
2022/02/23 13:20:03;;;;;;;;;;;11.70;99.90;;;;;;4856827;29;19928;-86
2022/02/23 13:23:29;;;;;;;;;;;;;;;;;;;;;
2022/02/23 13:26:26;;;;;;;;;;;13.20;99.90;;;;;;4854293;29;19936;-87
2022/02/23 13:29:30;;;;;;;;;;;11.80;99.90;;;;;;4879537;29;19942;-87
2022/02/23 13:32:41;;;;;;;;;;;12.10;99.90;;;;;;4884777;29;19928;-85
2022/02/23 13:35:28;;;;;;;;;;;11.90;99.90;;;;;;4865391;29;19932;-85
2022/02/23 13:38:06;;;;;;;;;;;11.80;99.90;;;;;;4876374;29;19934;-85
2022/02/23 13:41:23;;;;;;;;;;;11.70;99.90;;;;;;4859382;29;19938;-86
2022/02/23 13:44:19;;;;;;;;;;;10.50;99.90;;;;;;4860310;29;19929;-86
2022/02/23 13:47:01;;;;;;;;;;;11.90;99.90;;;;;;4872430;29;19928;-85
2022/02/23 13:50:20;;;;;;;;;;;11.50;99.90;;;;;;4857916;29;19938;-85
2022/02/23 13:53:43;;;;;;;;;;;11.40;99.90;;;;;;4881028;29;19928;-85
2022/02/23 13:56:56;;;;;;;;;;;11.20;99.90;;;;;;4858429;29;19932;-85
2022/02/23 14:00:36;;;;;;;;;;;11.40;99.90;;;;;;4867834;29;19928;-86
2022/02/23 14:04:02;;;;;;;;;;;11.90;99.90;;;;;;4888100;29;19929;-85
2022/02/23 14:10:00;;;;;;;;;;;11.40;99.90;;;;;;4863662;29;19928;-85
2022/02/23 14:13:20;;;;;;;;;;;10.80;99.90;;;;;;4892393;29;19928;-85
2022/02/23 14:15:54;;;;;;;;;;;11.30;99.90;;;;;;4884296;29;19936;-85
2022/02/23 14:18:46;;;;;;;;;;;11.40;99.90;;;;;;4838608;29;20338;-85
2022/02/23 14:21:37;;;;;;;;;;;11.00;99.90;;;;;;4860292;29;20667;-86
2022/02/23 14:24:28;;;;;;;;;;;11.20;99.90;;;;;;4875442;29;20309;-86
2022/02/23 14:27:03;;;;;;;;;;;11.20;99.90;;;;;;4850208;29;19941;-85
2022/02/23 14:30:00;;;;;;;;;;;10.80;99.90;;;;;;4871681;29;19939;-86
2022/02/23 14:33:34;;;;;;;;;;;11.10;99.90;;;;;;4825412;29;19935;-85
2022/02/23 14:36:31;;;;;;;;;;;10.90;99.90;;;;;;4856202;29;19928;-84
2022/02/23 14:39:04;;;;;;;;;;;10.80;99.90;;;;;;4863626;29;19928;-85
2022/02/23 14:41:39;;;;;;;;;;;10.70;99.90;;;;;;4850532;29;19932;-83
2022/02/23 14:44:22;;;;;;;;;;;11.00;99.90;;;;;;4868937;29;19940;-83
2022/02/23 14:46:54;;;;;;;;;;;10.80;99.90;;;;;;4845580;29;19929;-85
2022/02/23 14:49:28;;;;;;;;;;;10.90;99.90;;;;;;4866250;29;19939;-84
2022/02/23 14:52:42;;;;;;;;;;;10.00;99.90;;;;;;4832619;29;19929;-83
2022/02/23 14:55:15;;;;;;;;;;;10.10;99.90;;;;;;4823800;29;19939;-83
2022/02/23 14:57:57;;;;;;;;;;;11.00;99.90;;;;;;4869559;29;20007;-85
2022/02/23 15:00:31;;;;;;;;;;;11.20;99.90;;;;;;4515382;29;10000062;-84
2022/02/23 15:03:02;;;;;;;;;;;10.60;99.90;;;;;;4864932;29;19954;-84
2022/02/23 15:05:39;;;;;;;;;;;10.50;99.90;;;;;;4848748;29;19939;-86
2022/02/23 15:08:38;;;;;;;;;;;10.40;99.90;;;;;;4873533;29;19932;-85
2022/02/23 15:11:24;;;;;;;;;;;10.30;99.90;;;;;;4834461;29;19928;-84
2022/02/23 15:14:14;;;;;;;;;;;10.40;99.90;;;;;;4860527;29;19931;-84
2022/02/23 15:17:34;;;;;;;;;;;10.20;99.90;;;;;;4867162;29;19928;-83
2022/02/23 15:20:07;;;;;;;;;;;9.40;99.90;;;;;;4886687;29;19928;-85
2022/02/23 15:22:57;;;;;;;;;;;10.20;99.90;;;;;;4864609;29;19928;-84
2022/02/23 15:25:48;;;;;;;;;;;10.60;99.90;;;;;;4876889;29;20268;-84
2022/02/23 15:28:30;;;;;;;;;;;10.30;99.90;;;;;;4871062;29;19928;-85
2022/02/23 15:31:26;;;;;;;;;;;;;;;;;;;;;
2022/02/23 15:34:22;;;;;;;;;;;9.90;99.90;;;;;;4881176;29;19938;-83
2022/02/23 15:37:20;;;;;;;;;;;10.50;99.90;;;;;;4862544;29;19928;-84
2022/02/23 15:39:50;;;;;;;;;;;10.30;99.90;;;;;;4869680;29;19936;-84
2022/02/23 15:42:34;;;;;;;;;;;12.20;99.90;;;;;;4891843;29;19943;-84
2022/02/23 15:45:57;;;;;;;;;;;;;;;;;;;;;
2022/02/23 15:49:11;;;;;;;;;;;10.70;99.90;;;;;;4881202;29;20056;-85
2022/02/23 15:51:41;;;;;;;;;;;10.40;99.90;;;;;;4849994;29;19950;-89
2022/02/23 15:54:11;;;;;;;;;;;10.40;99.90;;;;;;4849033;29;19927;-86
2022/02/23 15:56:41;;;;;;;;;;;10.30;99.90;;;;;;4848569;29;20304;-92
2022/02/23 15:59:12;;;;;;;;;;;10.30;99.90;;;;;;4866574;29;20340;-83
2022/02/23 16:01:40;;;;;;;;;;;10.20;99.90;;;;;;4843975;29;20153;-87
2022/02/23 16:04:08;;;;;;;;;;;10.20;99.90;;;;;;4875756;29;19928;-84
2022/02/23 16:06:36;;;;;;;;;;;9.70;99.90;;;;;;4863367;29;19939;-87
2022/02/23 16:09:04;;;;;;;;;;;10.20;99.90;;;;;;4880875;29;19928;-83
2022/02/23 16:11:35;;;;;;;;;;;10.10;99.90;;;;;;4882212;29;19935;-90
2022/02/23 16:14:21;;;;;;;;;;;10.10;99.90;;;;;;4880728;29;19928;-86
2022/02/23 16:16:50;;;;;;;;;;;10.00;99.90;;;;;;4872573;29;19928;-88
2022/02/23 16:19:18;;;;;;;;;;;10.00;99.90;;;;;;4853590;29;20406;-84
2022/02/23 16:21:47;;;;;;;;;;;9.90;99.90;;;;;;4867915;29;19939;-86
2022/02/23 16:24:21;;;;;;;;;;;9.90;99.90;;;;;;4849917;29;19928;-84
2022/02/23 16:26:52;;;;;;;;;;;9.80;99.90;;;;;;4868779;29;20303;-83
2022/02/23 16:29:23;;;;;;;;;;;9.70;99.90;;;;;;4843714;29;19943;-84
2022/02/23 16:31:51;;;;;;;;;;;9.70;99.90;;;;;;4857262;29;19935;-87
2022/02/23 16:34:41;;;;;;;;;;;9.70;99.90;;;;;;4866091;29;19936;-84